AAL164 PHNL-KLAX
Flight info
| Callsign | AAL164 |
|---|---|
| Flight time | N/A |
| Altitude | 33000 |
| Route | MKK5 KOLEA CLUTS R465 CIVIT/N0445F350 R585 GITLE ADUMM GALIP R585 AUDIA SNAXX RYDRR2 |
| Aircraft | A321/M-SDE3FGHIRWY/LB1 |
Departure
| Time | N/A |
|---|---|
| Airport | Daniel K. Inouye International Airport (PHNL) |
Arrival
| Time | 2026-04-23 17:42 |
|---|---|
| Airport | Los Angeles International Airport (KLAX) |
| Time | Latitude | Longitude | Altitude | Speed | Heading |
|---|---|---|---|---|---|
| 2026-04-23 17:19 | 34.02620 | -118.25736 | 25292 ft | 420 kts | 119° |
| 2026-04-23 17:20 | 34.01166 | -118.22760 | 24796 ft | 406 kts | 133° |
| 2026-04-23 17:20 | 33.97568 | -118.17852 | 24551 ft | 379 kts | 139° |
| 2026-04-23 17:21 | 33.93832 | -118.13669 | 24030 ft | 356 kts | 155° |
| 2026-04-23 17:21 | 33.91605 | -118.12357 | 23098 ft | 359 kts | 171° |
| 2026-04-23 17:21 | 33.86709 | -118.12304 | 21114 ft | 356 kts | 206° |
| 2026-04-23 17:22 | 33.84522 | -118.13654 | 20211 ft | 354 kts | 223° |
| 2026-04-23 17:22 | 33.81645 | -118.18380 | 18412 ft | 359 kts | 254° |
| 2026-04-23 17:23 | 33.81556 | -118.24354 | 16433 ft | 374 kts | 286° |
| 2026-04-23 17:23 | 33.82680 | -118.27266 | 15432 ft | 385 kts | 297° |
| 2026-04-23 17:23 | 33.85574 | -118.32788 | 13576 ft | 396 kts | 302° |
| 2026-04-23 17:24 | 33.87121 | -118.35502 | 12885 ft | 391 kts | 303° |
| 2026-04-23 17:24 | 33.88703 | -118.38149 | 12167 ft | 389 kts | 309° |
| 2026-04-23 17:24 | 33.93284 | -118.41482 | 10793 ft | 395 kts | 345° |
| 2026-04-23 17:25 | 33.98672 | -118.40637 | 9406 ft | 402 kts | 25° |
| 2026-04-23 17:25 | 34.00876 | -118.38594 | 8750 ft | 401 kts | 46° |
| 2026-04-23 17:26 | 34.02991 | -118.32573 | 7476 ft | 393 kts | 86° |
| 2026-04-23 17:26 | 34.01601 | -118.26421 | 6242 ft | 382 kts | 118° |
| 2026-04-23 17:27 | 33.98822 | -118.21080 | 4960 ft | 370 kts | 123° |
| 2026-04-23 17:27 | 33.97379 | -118.18537 | 4285 ft | 365 kts | 124° |
| 2026-04-23 17:27 | 33.95950 | -118.16052 | 3813 ft | 354 kts | 126° |
| 2026-04-23 17:27 | 33.94271 | -118.14005 | 3667 ft | 336 kts | 143° |
| 2026-04-23 17:28 | 33.92265 | -118.12736 | 3686 ft | 316 kts | 160° |
| 2026-04-23 17:28 | 33.90175 | -118.12227 | 3687 ft | 299 kts | 176° |
| 2026-04-23 17:28 | 33.88168 | -118.12421 | 3660 ft | 282 kts | 192° |
| 2026-04-23 17:28 | 33.86377 | -118.13214 | 3687 ft | 267 kts | 207° |
| 2026-04-23 17:29 | 33.84879 | -118.14471 | 3685 ft | 253 kts | 221° |
| 2026-04-23 17:29 | 33.83745 | -118.16018 | 3689 ft | 244 kts | 235° |
| 2026-04-23 17:29 | 33.82522 | -118.19764 | 3694 ft | 245 kts | 262° |
| 2026-04-23 17:30 | 33.82466 | -118.21846 | 3694 ft | 247 kts | 277° |
| 2026-04-23 17:30 | 33.83487 | -118.25661 | 3692 ft | 232 kts | 300° |
| 2026-04-23 17:30 | 33.84313 | -118.27319 | 3418 ft | 228 kts | 304° |
| 2026-04-23 17:31 | 33.85173 | -118.28890 | 3345 ft | 224 kts | 304° |
| 2026-04-23 17:31 | 33.86045 | -118.30445 | 3294 ft | 224 kts | 305° |
| 2026-04-23 17:31 | 33.86919 | -118.32000 | 3239 ft | 224 kts | 305° |
| 2026-04-23 17:31 | 33.87789 | -118.33562 | 3195 ft | 225 kts | 304° |
| 2026-04-23 17:32 | 33.88651 | -118.35127 | 3143 ft | 224 kts | 304° |
| 2026-04-23 17:32 | 33.89536 | -118.36636 | 3090 ft | 224 kts | 310° |
| 2026-04-23 17:32 | 33.90614 | -118.37959 | 3045 ft | 220 kts | 322° |
| 2026-04-23 17:32 | 33.91870 | -118.38980 | 2984 ft | 217 kts | 333° |
| 2026-04-23 17:33 | 33.93263 | -118.39661 | 2944 ft | 215 kts | 346° |
| 2026-04-23 17:33 | 33.94728 | -118.39979 | 2897 ft | 214 kts | 357° |
| 2026-04-23 17:33 | 33.96202 | -118.39834 | 2722 ft | 212 kts | 19° |
| 2026-04-23 17:33 | 33.97439 | -118.38921 | 2615 ft | 211 kts | 46° |
| 2026-04-23 17:34 | 33.98154 | -118.37393 | 2570 ft | 212 kts | 75° |
| 2026-04-23 17:34 | 33.98173 | -118.35623 | 2531 ft | 214 kts | 98° |
| 2026-04-23 17:34 | 33.97765 | -118.32058 | 2436 ft | 215 kts | 98° |
| 2026-04-23 17:35 | 33.97565 | -118.30276 | 2387 ft | 215 kts | 98° |
| 2026-04-23 17:35 | 33.97162 | -118.26708 | 2291 ft | 215 kts | 98° |
| 2026-04-23 17:35 | 33.96962 | -118.24924 | 2241 ft | 215 kts | 98° |
| 2026-04-23 17:36 | 33.96761 | -118.23141 | 2186 ft | 215 kts | 98° |
| 2026-04-23 17:36 | 33.96559 | -118.21355 | 2150 ft | 215 kts | 98° |
| 2026-04-23 17:36 | 33.96356 | -118.19571 | 2093 ft | 215 kts | 98° |
| 2026-04-23 17:36 | 33.96154 | -118.17787 | 2002 ft | 215 kts | 98° |
| 2026-04-23 17:37 | 33.95932 | -118.16007 | 1896 ft | 215 kts | 105° |
| 2026-04-23 17:37 | 33.95158 | -118.14527 | 1893 ft | 212 kts | 144° |
| 2026-04-23 17:37 | 33.92456 | -118.14613 | 1898 ft | 210 kts | 223° |
| 2026-04-23 17:38 | 33.91749 | -118.16119 | 1899 ft | 211 kts | 262° |
| 2026-04-23 17:38 | 33.91968 | -118.17846 | 1907 ft | 212 kts | 291° |
| 2026-04-23 17:38 | 33.92525 | -118.19499 | 1896 ft | 213 kts | 291° |
| 2026-04-23 17:38 | 33.93086 | -118.21150 | 1911 ft | 213 kts | 292° |
| 2026-04-23 17:39 | 33.93644 | -118.22788 | 1921 ft | 204 kts | 292° |
| 2026-04-23 17:39 | 33.94144 | -118.24257 | 1910 ft | 177 kts | 291° |
| 2026-04-23 17:39 | 33.94576 | -118.25535 | 1922 ft | 158 kts | 291° |
| 2026-04-23 17:39 | 33.94857 | -118.26778 | 1895 ft | 152 kts | 273° |
| 2026-04-23 17:40 | 33.94775 | -118.28034 | 1766 ft | 150 kts | 262° |
| 2026-04-23 17:40 | 33.94649 | -118.29272 | 1595 ft | 148 kts | 262° |
| 2026-04-23 17:40 | 33.94525 | -118.30497 | 1412 ft | 147 kts | 262° |
| 2026-04-23 17:40 | 33.94401 | -118.31718 | 1217 ft | 147 kts | 263° |
| 2026-04-23 17:41 | 33.94273 | -118.32943 | 1027 ft | 147 kts | 263° |
| 2026-04-23 17:41 | 33.94030 | -118.35394 | 626 ft | 147 kts | 263° |
| 2026-04-23 17:41 | 33.93901 | -118.36620 | 417 ft | 148 kts | 263° |
| 2026-04-23 17:42 | 33.93643 | -118.39093 | 95 ft | 140 kts | 271° |
| 2026-04-23 17:42 | 33.93561 | -118.39997 | 96 ft | 67 kts | 263° |
| 2026-04-23 17:42 | 33.93530 | -118.40288 | 96 ft | 24 kts | 263° |
| 2026-04-23 17:43 | 33.93544 | -118.40457 | 95 ft | 18 kts | 283° |
| 2026-04-23 17:43 | 33.93576 | -118.40586 | 96 ft | 17 kts | 291° |
| 2026-04-23 17:43 | 33.93596 | -118.40728 | 95 ft | 18 kts | 265° |
| 2026-04-23 17:43 | 33.93624 | -118.40869 | 95 ft | 17 kts | 312° |
| 2026-04-23 17:44 | 33.93724 | -118.40905 | 97 ft | 14 kts | 354° |
| 2026-04-23 17:44 | 33.93797 | -118.40914 | 93 ft | 3 kts | 354° |
| 2026-04-23 17:44 | 33.93854 | -118.40920 | 94 ft | 4 kts | 1° |
| 2026-04-23 17:45 | 33.93872 | -118.40878 | 95 ft | 11 kts | 77° |
| 2026-04-23 17:45 | 33.93897 | -118.40632 | 97 ft | 16 kts | 83° |
| 2026-04-23 17:45 | 33.93917 | -118.40542 | 95 ft | 7 kts | 26° |
| 2026-04-23 17:46 | 33.94040 | -118.40555 | 95 ft | 11 kts | 353° |
| 2026-04-23 17:46 | 33.94100 | -118.40564 | 95 ft | 3 kts | 353° |
| 2026-04-23 17:46 | 33.94113 | -118.40569 | 95 ft | 2 kts | 322° |
| 2026-04-23 17:47 | 33.94116 | -118.40594 | 95 ft | 1 kts | 264° |
| 2026-04-23 17:47 | 33.94114 | -118.40613 | 93 ft | 3 kts | 263° |
| 2026-04-23 17:47 | 33.94113 | -118.40631 | 93 ft | 0 kts | 263° |
| 2026-04-23 17:48 | 33.94112 | -118.40633 | 95 ft | 0 kts | 263° |